createdAt,value
2023-04-11T00:00:11.128Z,419.00
2023-04-11T00:01:11.152Z,419.00
2023-04-11T00:02:11.214Z,421.00
2023-04-11T00:03:11.328Z,421.00
2023-04-11T00:04:11.237Z,423.00
2023-04-11T00:05:11.082Z,425.00
2023-04-11T00:06:11.074Z,425.00
2023-04-11T00:07:11.065Z,425.00
2023-04-11T00:08:11.055Z,422.00
2023-04-11T00:09:11.049Z,423.00
2023-04-11T00:10:11.094Z,422.00
2023-04-11T00:11:11.044Z,424.00
2023-04-11T00:12:11.045Z,423.00
2023-04-11T00:13:11.032Z,424.00
2023-04-11T00:14:11.027Z,422.00
2023-04-11T00:15:11.001Z,422.00
2023-04-11T00:16:11.048Z,423.00
2023-04-11T00:17:11.018Z,424.00
2023-04-11T00:18:10.996Z,425.00
2023-04-11T00:19:10.982Z,427.00
2023-04-11T00:20:11.055Z,427.00
2023-04-11T00:21:10.979Z,427.00
2023-04-11T00:22:10.974Z,426.00
2023-04-11T00:23:10.967Z,424.00
2023-04-11T00:24:10.972Z,425.00
2023-04-11T00:25:10.972Z,423.00
2023-04-11T00:26:10.957Z,421.00
2023-04-11T00:27:10.932Z,423.00
2023-04-11T00:28:10.974Z,423.00
2023-04-11T00:29:10.940Z,423.00
2023-04-11T00:30:10.920Z,424.00
2023-04-11T00:31:10.914Z,423.00
2023-04-11T00:32:10.969Z,423.00
2023-04-11T00:33:10.900Z,422.00
2023-04-11T00:34:10.911Z,423.00
2023-04-11T00:35:10.908Z,425.00
2023-04-11T00:36:10.989Z,424.00
2023-04-11T00:37:10.874Z,424.00
2023-04-11T00:38:10.986Z,425.00
2023-04-11T00:39:10.883Z,427.00
2023-04-11T00:40:10.873Z,429.00
2023-04-11T00:41:10.875Z,429.00
2023-04-11T00:42:10.851Z,430.00
2023-04-11T00:43:10.858Z,429.00
2023-04-11T00:44:10.893Z,429.00
2023-04-11T00:45:10.951Z,426.00
2023-04-11T00:46:11.078Z,424.00
2023-04-11T00:47:11.096Z,423.00
2023-04-11T00:48:11.128Z,424.00
2023-04-11T00:49:11.190Z,424.00
2023-04-11T00:50:11.220Z,426.00
2023-04-11T00:51:11.247Z,429.00
2023-04-11T00:52:11.276Z,428.00
2023-04-11T00:53:11.301Z,428.00
2023-04-11T00:54:11.325Z,428.00
2023-04-11T00:55:11.367Z,427.00
2023-04-11T00:56:11.386Z,425.00
2023-04-11T00:57:11.410Z,422.00
2023-04-11T00:58:11.471Z,423.00
2023-04-11T00:59:11.467Z,423.00
2023-04-11T01:00:11.477Z,422.00
2023-04-11T01:01:11.610Z,424.00
2023-04-11T01:02:11.561Z,426.00
2023-04-11T01:03:11.674Z,427.00
2023-04-11T01:04:11.619Z,428.00
2023-04-11T01:05:11.596Z,428.00
2023-04-11T01:06:11.629Z,426.00
2023-04-11T01:07:11.656Z,426.00
2023-04-11T01:08:11.683Z,426.00
2023-04-11T01:09:11.794Z,428.00
2023-04-11T01:10:11.749Z,428.00
2023-04-11T01:11:11.787Z,427.00
2023-04-11T01:12:11.806Z,427.00
2023-04-11T01:13:11.821Z,429.00
2023-04-11T01:14:11.838Z,429.00
2023-04-11T01:15:11.882Z,431.00
2023-04-11T01:16:11.972Z,430.00
2023-04-11T01:17:12.026Z,432.00
2023-04-11T01:18:12.076Z,429.00
2023-04-11T01:19:12.120Z,429.00
2023-04-11T01:20:12.166Z,427.00
2023-04-11T01:21:12.186Z,426.00
2023-04-11T01:22:12.205Z,425.00
2023-04-11T01:23:12.254Z,424.00
2023-04-11T01:24:12.263Z,422.00
2023-04-11T01:25:12.306Z,423.00
2023-04-11T01:26:12.280Z,424.00
2023-04-11T01:27:12.312Z,423.00
2023-04-11T01:28:12.364Z,423.00
2023-04-11T01:29:12.419Z,425.00
2023-04-11T01:30:12.482Z,428.00
2023-04-11T01:31:12.553Z,428.00
2023-04-11T01:32:12.586Z,429.00
2023-04-11T01:33:12.620Z,429.00
2023-04-11T01:34:12.671Z,428.00
2023-04-11T01:35:12.726Z,430.00
2023-04-11T01:36:12.769Z,431.00
2023-04-11T01:37:12.777Z,431.00
2023-04-11T01:38:12.833Z,429.00
2023-04-11T01:39:12.840Z,427.00
2023-04-11T01:40:12.879Z,426.00
2023-04-11T01:41:12.901Z,425.00
2023-04-11T01:42:12.938Z,427.00
2023-04-11T01:43:12.964Z,427.00
2023-04-11T01:44:12.987Z,429.00
2023-04-11T01:45:13.038Z,431.00
2023-04-11T01:46:13.017Z,431.00
2023-04-11T01:47:13.038Z,431.00
2023-04-11T01:48:13.101Z,431.00
2023-04-11T01:49:13.246Z,430.00
2023-04-11T01:50:13.116Z,431.00
2023-04-11T01:51:13.154Z,431.00
2023-04-11T01:52:13.205Z,430.00
2023-04-11T01:53:13.230Z,427.00
2023-04-11T01:54:13.235Z,426.00
2023-04-11T01:55:13.264Z,427.00
2023-04-11T01:56:13.263Z,426.00
2023-04-11T01:57:13.290Z,427.00
2023-04-11T01:58:13.324Z,429.00
2023-04-11T01:59:13.338Z,429.00
2023-04-11T02:00:13.383Z,429.00
2023-04-11T02:01:13.466Z,427.00
2023-04-11T02:02:13.582Z,428.00
2023-04-11T02:03:13.629Z,429.00
2023-04-11T02:04:13.526Z,430.00
2023-04-11T02:05:13.484Z,430.00
2023-04-11T02:06:13.489Z,429.00
2023-04-11T02:07:13.565Z,429.00
2023-04-11T02:08:13.574Z,428.00
2023-04-11T02:09:13.594Z,429.00
2023-04-11T02:10:13.650Z,430.00
2023-04-11T02:11:13.738Z,430.00
2023-04-11T02:12:13.749Z,430.00
2023-04-11T02:13:13.817Z,432.00
2023-04-11T02:14:13.843Z,431.00
2023-04-11T02:15:13.927Z,434.00
2023-04-11T02:16:14.004Z,435.00
2023-04-11T02:17:13.998Z,436.00
2023-04-11T02:18:14.000Z,435.00
2023-04-11T02:19:14.031Z,435.00
2023-04-11T02:20:14.083Z,434.00
2023-04-11T02:21:14.101Z,433.00
2023-04-11T02:22:14.124Z,434.00
2023-04-11T02:23:14.152Z,435.00
2023-04-11T02:24:14.158Z,433.00
2023-04-11T02:25:14.184Z,433.00
2023-04-11T02:26:14.229Z,432.00
2023-04-11T02:27:14.292Z,432.00
2023-04-11T02:28:14.358Z,431.00
2023-04-11T02:29:14.410Z,433.00
2023-04-11T02:30:14.454Z,433.00
2023-04-11T02:31:14.602Z,435.00
2023-04-11T02:32:14.670Z,435.00
2023-04-11T02:33:14.628Z,434.00
2023-04-11T02:34:14.673Z,433.00
2023-04-11T02:35:14.743Z,432.00
2023-04-11T02:36:14.804Z,431.00
2023-04-11T02:37:14.809Z,431.00
2023-04-11T02:38:14.814Z,433.00
2023-04-11T02:39:14.835Z,432.00
2023-04-11T02:40:14.880Z,433.00
2023-04-11T02:41:14.912Z,433.00
2023-04-11T02:42:14.936Z,433.00
2023-04-11T02:43:14.963Z,433.00
2023-04-11T02:44:14.985Z,433.00
2023-04-11T02:45:15.012Z,432.00
2023-04-11T02:46:15.163Z,433.00
2023-04-11T02:47:15.088Z,433.00
2023-04-11T02:48:15.099Z,433.00
2023-04-11T02:49:15.157Z,435.00
2023-04-11T02:50:15.178Z,432.00
2023-04-11T02:51:15.192Z,433.00
2023-04-11T02:52:15.220Z,433.00
2023-04-11T02:53:15.269Z,432.00
2023-04-11T02:54:15.275Z,432.00
2023-04-11T02:55:15.303Z,431.00
2023-04-11T02:56:15.329Z,432.00
2023-04-11T02:57:15.341Z,432.00
2023-04-11T02:58:15.390Z,432.00
2023-04-11T02:59:15.412Z,431.00
2023-04-11T03:00:15.447Z,430.00
2023-04-11T03:01:15.514Z,431.00
2023-04-11T03:02:15.573Z,429.00
2023-04-11T03:03:15.723Z,430.00
2023-04-11T03:04:15.630Z,430.00
2023-04-11T03:05:15.601Z,430.00
2023-04-11T03:06:15.635Z,430.00
2023-04-11T03:07:15.666Z,431.00
2023-04-11T03:08:15.724Z,431.00
2023-04-11T03:09:15.747Z,429.00
2023-04-11T03:10:15.770Z,428.00
2023-04-11T03:11:15.793Z,428.00
2023-04-11T03:12:15.814Z,429.00
2023-04-11T03:13:15.856Z,429.00
2023-04-11T03:14:15.900Z,429.00
2023-04-11T03:15:15.917Z,429.00
2023-04-11T03:16:16.028Z,429.00
2023-04-11T03:17:15.993Z,428.00
2023-04-11T03:18:16.020Z,427.00
2023-04-11T03:19:16.074Z,427.00
2023-04-11T03:20:16.134Z,428.00
2023-04-11T03:21:16.177Z,428.00
2023-04-11T03:22:16.250Z,427.00
2023-04-11T03:23:16.306Z,426.00
2023-04-11T03:24:16.398Z,426.00
2023-04-11T03:25:16.444Z,427.00
2023-04-11T03:26:16.483Z,428.00
2023-04-11T03:27:16.506Z,429.00
2023-04-11T03:28:16.564Z,427.00
2023-04-11T03:29:16.637Z,427.00
2023-04-11T03:30:16.677Z,427.00
2023-04-11T03:31:16.750Z,425.00
2023-04-11T03:32:16.789Z,426.00
2023-04-11T03:33:16.823Z,426.00
2023-04-11T03:34:16.881Z,426.00
2023-04-11T03:35:16.936Z,424.00
2023-04-11T03:36:17.012Z,424.00
2023-04-11T03:37:17.042Z,423.00
2023-04-11T03:38:17.111Z,425.00
2023-04-11T03:39:17.165Z,427.00
2023-04-11T03:40:17.212Z,426.00
2023-04-11T03:41:17.254Z,426.00
2023-04-11T03:42:17.250Z,424.00
2023-04-11T03:43:17.286Z,425.00
2023-04-11T03:44:17.326Z,429.00
2023-04-11T03:45:17.353Z,429.00
2023-04-11T03:46:17.395Z,431.00
2023-04-11T03:47:17.397Z,430.00
2023-04-11T03:48:19.558Z,428.00
2023-04-11T03:49:17.424Z,429.00
2023-04-11T03:50:17.455Z,427.00
2023-04-11T03:51:17.419Z,426.00
2023-04-11T03:52:17.412Z,426.00
2023-04-11T03:53:17.416Z,427.00
2023-04-11T03:54:17.416Z,426.00
2023-04-11T03:55:17.394Z,425.00
2023-04-11T03:56:17.387Z,424.00
2023-04-11T03:57:17.382Z,426.00
2023-04-11T03:58:17.394Z,427.00
2023-04-11T03:59:17.345Z,425.00
2023-04-11T04:00:17.355Z,428.00
2023-04-11T04:01:17.345Z,429.00
2023-04-11T04:02:17.389Z,429.00
2023-04-11T04:03:17.528Z,430.00
2023-04-11T04:04:17.379Z,430.00
2023-04-11T04:05:17.323Z,432.00
2023-04-11T04:06:17.303Z,432.00
2023-04-11T04:07:17.304Z,429.00
2023-04-11T04:08:17.300Z,428.00
2023-04-11T04:09:17.311Z,430.00
2023-04-11T04:10:17.287Z,432.00
2023-04-11T04:11:17.278Z,433.00
2023-04-11T04:12:17.276Z,433.00
2023-04-11T04:13:17.293Z,433.00
2023-04-11T04:14:17.283Z,433.00
2023-04-11T04:15:17.271Z,435.00
2023-04-11T04:16:17.280Z,436.00
2023-04-11T04:17:17.231Z,434.00
2023-04-11T04:18:17.260Z,432.00
2023-04-11T04:19:17.220Z,432.00
2023-04-11T04:20:17.239Z,433.00
2023-04-11T04:21:17.225Z,434.00
2023-04-11T04:22:17.216Z,435.00
2023-04-11T04:23:17.229Z,433.00
2023-04-11T04:24:17.207Z,431.00
2023-04-11T04:25:17.175Z,432.00
2023-04-11T04:26:17.201Z,432.00
2023-04-11T04:27:17.185Z,432.00
2023-04-11T04:28:17.193Z,431.00
2023-04-11T04:29:17.166Z,432.00
2023-04-11T04:30:17.145Z,432.00
2023-04-11T04:31:17.176Z,432.00
2023-04-11T04:32:17.152Z,434.00
2023-04-11T04:33:17.128Z,434.00
2023-04-11T04:34:17.131Z,435.00
2023-04-11T04:35:17.132Z,435.00
2023-04-11T04:36:17.142Z,436.00
2023-04-11T04:37:17.173Z,436.00
2023-04-11T04:38:17.203Z,435.00
2023-04-11T04:39:17.265Z,433.00
2023-04-11T04:40:17.275Z,431.00
2023-04-11T04:41:17.307Z,430.00
2023-04-11T04:42:17.342Z,430.00
2023-04-11T04:43:17.382Z,433.00
2023-04-11T04:44:17.483Z,432.00
2023-04-11T04:45:17.491Z,434.00
2023-04-11T04:46:17.526Z,433.00
2023-04-11T04:47:17.551Z,433.00
2023-04-11T04:48:17.607Z,433.00
2023-04-11T04:49:17.654Z,432.00
2023-04-11T04:50:17.729Z,431.00
2023-04-11T04:51:17.768Z,432.00
2023-04-11T04:52:17.855Z,435.00
2023-04-11T04:53:17.920Z,437.00
2023-04-11T04:54:17.965Z,436.00
2023-04-11T04:55:18.012Z,434.00
2023-04-11T04:56:18.069Z,434.00
2023-04-11T04:57:18.127Z,434.00
2023-04-11T04:58:18.195Z,433.00
2023-04-11T04:59:18.243Z,434.00
2023-04-11T05:00:18.308Z,434.00
2023-04-11T05:01:18.370Z,434.00
2023-04-11T05:02:18.439Z,434.00
2023-04-11T05:03:18.589Z,435.00
2023-04-11T05:04:18.573Z,435.00
2023-04-11T05:05:18.594Z,438.00
2023-04-11T05:06:19.745Z,435.00
2023-04-11T05:07:18.707Z,435.00
2023-04-11T05:08:18.760Z,435.00
2023-04-11T05:09:18.817Z,436.00
2023-04-11T05:10:18.848Z,437.00
2023-04-11T05:11:18.913Z,440.00
2023-04-11T05:12:18.961Z,442.00
2023-04-11T05:13:19.044Z,441.00
2023-04-11T05:14:19.081Z,443.00
2023-04-11T05:15:19.136Z,442.00
2023-04-11T05:16:19.215Z,439.00
2023-04-11T05:17:19.240Z,437.00
2023-04-11T05:18:19.271Z,437.00
2023-04-11T05:19:19.290Z,439.00
2023-04-11T05:20:19.308Z,437.00
2023-04-11T05:21:19.351Z,435.00
2023-04-11T05:22:19.393Z,434.00
2023-04-11T05:23:19.441Z,433.00
2023-04-11T05:24:19.442Z,433.00
2023-04-11T05:25:19.501Z,436.00
2023-04-11T05:26:19.484Z,437.00
2023-04-11T05:27:19.535Z,437.00
2023-04-11T05:28:19.578Z,440.00
2023-04-11T05:29:19.584Z,447.00
2023-04-11T05:30:19.633Z,526.00
2023-04-11T05:31:19.747Z,533.00
2023-04-11T05:32:19.725Z,533.00
2023-04-11T05:33:19.794Z,546.00
2023-04-11T05:34:19.858Z,553.00
2023-04-11T05:35:19.923Z,560.00
2023-04-11T05:36:19.990Z,567.00
2023-04-11T05:37:20.054Z,584.00
2023-04-11T05:38:20.126Z,622.00
2023-04-11T05:39:20.191Z,730.00
2023-04-11T05:40:20.185Z,768.00
2023-04-11T05:41:20.210Z,778.00
2023-04-11T05:42:20.263Z,789.00
2023-04-11T05:43:20.314Z,800.00
2023-04-11T05:44:20.329Z,891.00
2023-04-11T05:45:20.363Z,883.00
2023-04-11T05:46:20.375Z,878.00
2023-04-11T05:47:20.350Z,881.00
2023-04-11T05:48:20.373Z,876.00
2023-04-11T05:49:20.418Z,873.00
2023-04-11T05:50:20.427Z,886.00
2023-04-11T05:51:20.482Z,895.00
2023-04-11T05:52:20.485Z,893.00
2023-04-11T05:53:20.483Z,887.00
2023-04-11T05:54:20.493Z,890.00
2023-04-11T05:55:20.554Z,896.00
2023-04-11T05:56:20.621Z,921.00
2023-04-11T05:57:20.660Z,943.00
2023-04-11T05:58:20.675Z,954.00
2023-04-11T05:59:25.752Z,963.00
2023-04-11T06:00:21.688Z,967.00
2023-04-11T06:01:20.685Z,968.00
2023-04-11T06:02:20.770Z,975.00
2023-04-11T06:03:20.801Z,997.00
2023-04-11T06:04:20.925Z,997.00
2023-04-11T06:05:20.740Z,997.00
2023-04-11T06:06:20.674Z,1005.00
2023-04-11T06:07:20.646Z,1042.00
2023-04-11T06:08:20.634Z,1058.00
2023-04-11T06:09:20.646Z,1053.00
2023-04-11T06:10:20.621Z,1046.00
2023-04-11T06:11:20.696Z,1048.00
2023-04-11T06:12:20.679Z,1071.00
2023-04-11T06:13:20.724Z,1075.00
2023-04-11T06:14:20.717Z,1071.00
2023-04-11T06:15:20.738Z,1071.00
2023-04-11T06:16:20.797Z,1072.00
2023-04-11T06:17:20.806Z,1072.00
2023-04-11T06:18:20.819Z,1078.00
2023-04-11T06:19:20.855Z,1081.00
2023-04-11T06:20:20.868Z,1085.00
2023-04-11T06:21:20.848Z,1089.00
2023-04-11T06:22:20.895Z,1098.00
2023-04-11T06:23:20.909Z,1133.00
2023-04-11T06:24:20.928Z,1152.00
2023-04-11T06:25:20.963Z,1145.00
2023-04-11T06:26:20.971Z,1145.00
2023-04-11T06:27:20.955Z,1145.00
2023-04-11T06:28:20.977Z,1149.00
2023-04-11T06:29:21.001Z,1149.00
2023-04-11T06:30:20.994Z,1155.00
2023-04-11T06:31:21.087Z,1157.00
2023-04-11T06:32:21.137Z,1140.00
2023-04-11T06:33:21.188Z,1074.00
2023-04-11T06:34:21.194Z,1059.00
2023-04-11T06:35:21.243Z,899.00
2023-04-11T06:36:21.319Z,814.00
2023-04-11T06:37:21.293Z,766.00
2023-04-11T06:38:21.345Z,870.00
2023-04-11T06:39:21.379Z,835.00
2023-04-11T06:40:21.398Z,824.00
2023-04-11T06:41:21.414Z,820.00
2023-04-11T06:42:21.406Z,831.00
2023-04-11T06:43:21.429Z,908.00
2023-04-11T06:44:21.493Z,906.00
2023-04-11T06:45:21.491Z,843.00
2023-04-11T06:46:21.576Z,900.00
2023-04-11T06:47:21.688Z,886.00
2023-04-11T06:48:21.698Z,894.00
2023-04-11T06:49:21.774Z,906.00
2023-04-11T06:50:21.791Z,913.00
2023-04-11T06:51:21.832Z,912.00
2023-04-11T06:52:21.893Z,910.00
2023-04-11T06:53:21.954Z,918.00
2023-04-11T06:54:21.968Z,925.00
2023-04-11T06:55:21.991Z,930.00
2023-04-11T06:56:22.020Z,933.00
2023-04-11T06:57:22.074Z,943.00
2023-04-11T06:58:22.150Z,946.00
2023-04-11T06:59:22.336Z,942.00
2023-04-11T07:00:22.130Z,934.00
2023-04-11T07:01:22.216Z,927.00
2023-04-11T07:02:22.352Z,924.00
2023-04-11T07:03:22.448Z,938.00
2023-04-11T07:04:22.383Z,975.00
2023-04-11T07:05:22.327Z,967.00
2023-04-11T07:06:22.348Z,961.00
2023-04-11T07:07:22.407Z,960.00
2023-04-11T07:08:22.687Z,960.00
2023-04-11T07:09:22.453Z,953.00
2023-04-11T07:10:22.515Z,944.00
2023-04-11T07:11:22.546Z,934.00
2023-04-11T07:12:22.617Z,929.00
2023-04-11T07:13:22.668Z,926.00
2023-04-11T07:14:22.697Z,925.00
2023-04-11T07:15:22.717Z,929.00
2023-04-11T07:16:22.738Z,932.00
2023-04-11T07:17:22.762Z,933.00
2023-04-11T07:18:22.800Z,928.00
2023-04-11T07:19:22.821Z,920.00
2023-04-11T07:20:23.172Z,923.00
2023-04-11T07:21:22.863Z,937.00
2023-04-11T07:22:22.866Z,949.00
2023-04-11T07:23:23.817Z,951.00
2023-04-11T07:24:22.927Z,954.00
2023-04-11T07:25:22.966Z,950.00
2023-04-11T07:26:23.001Z,852.00
2023-04-11T07:27:23.016Z,877.00
2023-04-11T07:28:23.188Z,890.00
2023-04-11T07:29:23.106Z,887.00
2023-04-11T07:30:23.155Z,888.00
2023-04-11T07:31:23.180Z,827.00
2023-04-11T07:32:23.217Z,782.00
2023-04-11T07:33:23.183Z,715.00
2023-04-11T07:34:23.658Z,701.00
2023-04-11T07:35:23.243Z,682.00
2023-04-11T07:36:23.284Z,665.00
2023-04-11T07:37:23.350Z,652.00
2023-04-11T07:38:23.412Z,642.00
2023-04-11T07:39:23.439Z,628.00
2023-04-11T07:40:23.519Z,619.00
2023-04-11T07:41:23.549Z,610.00
2023-04-11T07:42:23.577Z,602.00
2023-04-11T07:43:23.532Z,596.00
2023-04-11T07:44:24.154Z,589.00
2023-04-11T07:45:24.169Z,583.00
2023-04-11T07:46:23.726Z,577.00
2023-04-11T07:47:23.774Z,569.00
2023-04-11T07:48:23.831Z,564.00
2023-04-11T07:49:23.885Z,559.00
2023-04-11T07:50:23.916Z,552.00
2023-04-11T07:51:23.978Z,547.00
2023-04-11T07:52:24.005Z,543.00
2023-04-11T07:53:24.042Z,541.00
2023-04-11T07:54:24.118Z,538.00
2023-04-11T07:55:24.181Z,534.00
2023-04-11T07:56:24.226Z,528.00
2023-04-11T07:57:24.313Z,521.00
2023-04-11T07:58:24.318Z,519.00
2023-04-11T07:59:24.354Z,515.00
2023-04-11T08:00:24.426Z,513.00
2023-04-11T08:01:24.456Z,509.00
2023-04-11T08:02:24.646Z,508.00
2023-04-11T08:03:24.895Z,505.00
2023-04-11T08:04:24.708Z,502.00
2023-04-11T08:05:24.750Z,496.00
2023-04-11T08:06:25.030Z,493.00
2023-04-11T08:07:24.719Z,491.00
2023-04-11T08:08:24.815Z,490.00
2023-04-11T08:09:24.837Z,487.00
2023-04-11T08:10:24.951Z,486.00
2023-04-11T08:11:24.983Z,484.00
2023-04-11T08:12:25.030Z,482.00
2023-04-11T08:13:25.107Z,482.00
2023-04-11T08:14:25.139Z,481.00
2023-04-11T08:15:25.156Z,481.00
2023-04-11T08:16:25.249Z,477.00
2023-04-11T08:17:28.585Z,475.00
2023-04-11T08:18:25.218Z,474.00
2023-04-11T08:19:25.209Z,475.00
2023-04-11T08:20:25.257Z,482.00
2023-04-11T08:21:25.232Z,491.00
2023-04-11T08:22:25.173Z,546.00
2023-04-11T08:23:25.148Z,574.00
2023-04-11T08:24:25.148Z,661.00
2023-04-11T08:25:25.212Z,648.00
2023-04-11T08:26:25.149Z,640.00
2023-04-11T08:27:25.127Z,658.00
2023-04-11T08:28:25.127Z,724.00
2023-04-11T08:29:25.140Z,767.00
2023-04-11T08:30:25.139Z,815.00
2023-04-11T08:31:25.217Z,823.00
2023-04-11T08:32:25.136Z,830.00
2023-04-11T08:33:25.104Z,835.00
2023-04-11T08:34:25.243Z,851.00
2023-04-11T08:35:25.073Z,880.00
2023-04-11T08:36:25.083Z,896.00
2023-04-11T08:37:25.088Z,933.00
2023-04-11T08:38:25.061Z,947.00
2023-04-11T08:39:25.049Z,957.00
2023-04-11T08:40:26.893Z,899.00
2023-04-11T08:41:25.229Z,908.00
2023-04-11T08:42:25.053Z,879.00
2023-04-11T08:43:25.064Z,885.00
2023-04-11T08:44:25.027Z,829.00
2023-04-11T08:45:25.033Z,899.00
2023-04-11T08:46:25.076Z,935.00
2023-04-11T08:47:25.013Z,952.00
2023-04-11T08:48:24.989Z,967.00
2023-04-11T08:49:25.006Z,972.00
2023-04-11T08:50:24.990Z,983.00
2023-04-11T08:51:25.011Z,991.00
2023-04-11T08:52:25.032Z,989.00
2023-04-11T08:53:25.037Z,996.00
2023-04-11T08:54:25.085Z,989.00
2023-04-11T08:55:25.090Z,968.00
2023-04-11T08:56:25.089Z,972.00
2023-04-11T08:57:25.088Z,968.00
2023-04-11T08:58:25.133Z,966.00
2023-04-11T08:59:25.131Z,973.00
2023-04-11T09:00:25.121Z,967.00
2023-04-11T09:01:25.178Z,916.00
2023-04-11T09:02:25.241Z,940.00
2023-04-11T09:03:25.163Z,949.00
2023-04-11T09:04:25.124Z,948.00
2023-04-11T09:05:25.126Z,942.00
2023-04-11T09:06:25.137Z,937.00
2023-04-11T09:07:25.133Z,937.00
2023-04-11T09:08:25.127Z,938.00
2023-04-11T09:09:25.107Z,929.00
2023-04-11T09:10:25.121Z,862.00
2023-04-11T09:11:25.141Z,866.00
2023-04-11T09:12:25.166Z,877.00
2023-04-11T09:13:25.237Z,768.00
2023-04-11T09:14:25.321Z,882.00
2023-04-11T09:15:25.320Z,825.00
2023-04-11T09:16:25.490Z,826.00
2023-04-11T09:17:25.433Z,825.00
2023-04-11T09:18:25.448Z,869.00
2023-04-11T09:19:25.464Z,854.00
2023-04-11T09:20:25.483Z,843.00
2023-04-11T09:21:25.502Z,829.00
2023-04-11T09:22:25.546Z,819.00
2023-04-11T09:23:27.252Z,804.00
2023-04-11T09:24:25.635Z,835.00
2023-04-11T09:25:25.685Z,850.00
2023-04-11T09:26:25.716Z,863.00
2023-04-11T09:27:25.733Z,872.00
2023-04-11T09:28:25.781Z,921.00
2023-04-11T09:29:25.761Z,990.00
2023-04-11T09:30:25.796Z,1007.00
2023-04-11T09:31:26.243Z,1010.00
2023-04-11T09:32:25.948Z,1015.00
2023-04-11T09:33:26.006Z,1007.00
2023-04-11T09:34:26.063Z,924.00
2023-04-11T09:35:26.107Z,849.00
2023-04-11T09:36:26.151Z,765.00
2023-04-11T09:37:26.196Z,748.00
2023-04-11T09:38:26.211Z,733.00
2023-04-11T09:39:26.198Z,717.00
2023-04-11T09:40:26.202Z,698.00
2023-04-11T09:41:26.237Z,685.00
2023-04-11T09:42:26.267Z,671.00
2023-04-11T09:43:26.337Z,666.00
2023-04-11T09:44:26.330Z,651.00
2023-04-11T09:45:26.343Z,636.00
2023-04-11T09:46:26.466Z,629.00
2023-04-11T09:47:26.481Z,618.00
2023-04-11T09:48:39.454Z,611.00
2023-04-11T09:49:27.466Z,603.00
2023-04-11T09:50:26.463Z,601.00
2023-04-11T09:52:26.429Z,587.00
2023-04-11T09:53:26.437Z,579.00
2023-04-11T09:54:26.420Z,573.00
2023-04-11T09:55:26.448Z,568.00
2023-04-11T09:56:26.436Z,566.00
2023-04-11T09:57:26.418Z,560.00
2023-04-11T09:58:26.390Z,553.00
2023-04-11T09:59:26.387Z,550.00
2023-04-11T10:00:26.387Z,544.00
2023-04-11T10:01:26.391Z,539.00
2023-04-11T10:02:26.484Z,536.00
2023-04-11T10:03:26.446Z,534.00
2023-04-11T10:04:26.446Z,528.00
2023-04-11T10:05:26.359Z,525.00
2023-04-11T10:06:26.350Z,525.00
2023-04-11T10:07:26.325Z,521.00
2023-04-11T10:08:26.346Z,517.00
2023-04-11T10:09:26.336Z,513.00
2023-04-11T10:10:26.330Z,511.00
2023-04-11T10:11:26.311Z,508.00
2023-04-11T10:12:26.310Z,505.00
2023-04-11T10:13:26.309Z,503.00
2023-04-11T10:14:26.284Z,499.00
2023-04-11T10:15:26.294Z,495.00
2023-04-11T10:16:26.287Z,491.00
2023-04-11T10:17:26.311Z,488.00
2023-04-11T10:18:26.264Z,484.00
2023-04-11T10:19:26.724Z,483.00
2023-04-11T10:20:26.287Z,484.00
2023-04-11T10:21:26.240Z,481.00
2023-04-11T10:22:26.774Z,485.00
2023-04-11T10:23:26.231Z,537.00
2023-04-11T10:24:26.797Z,590.00
2023-04-11T10:25:26.214Z,606.00
2023-04-11T10:26:26.202Z,647.00
2023-04-11T10:27:26.208Z,697.00
2023-04-11T10:28:26.219Z,727.00
2023-04-11T10:29:26.212Z,742.00
2023-04-11T10:30:26.168Z,752.00
2023-04-11T10:31:26.250Z,760.00
2023-04-11T10:32:26.213Z,760.00
2023-04-11T10:33:26.161Z,760.00
2023-04-11T10:34:26.225Z,768.00
2023-04-11T10:35:26.158Z,786.00
2023-04-11T10:36:26.123Z,830.00
2023-04-11T10:37:26.127Z,836.00
2023-04-11T10:38:26.134Z,845.00
2023-04-11T10:39:26.114Z,845.00
2023-04-11T10:40:26.113Z,846.00
2023-04-11T10:41:26.120Z,845.00
2023-04-11T10:42:26.086Z,845.00
2023-04-11T10:43:26.104Z,892.00
2023-04-11T10:44:26.090Z,894.00
2023-04-11T10:45:26.086Z,892.00
2023-04-11T10:46:26.132Z,880.00
2023-04-11T10:47:26.096Z,895.00
2023-04-11T10:48:26.058Z,893.00
2023-04-11T10:49:26.069Z,885.00
2023-04-11T10:50:26.128Z,860.00
2023-04-11T10:51:26.131Z,871.00
2023-04-11T10:52:26.196Z,868.00
2023-04-11T10:53:26.234Z,862.00
2023-04-11T10:54:26.308Z,858.00
2023-04-11T10:55:26.302Z,857.00
2023-04-11T10:56:26.343Z,867.00
2023-04-11T10:57:26.344Z,870.00
2023-04-11T10:58:26.350Z,870.00
2023-04-11T10:59:26.364Z,868.00
2023-04-11T11:00:26.377Z,685.00
2023-04-11T11:01:32.347Z,761.00
2023-04-11T11:02:27.522Z,801.00
2023-04-11T11:03:26.578Z,815.00
2023-04-11T11:04:26.490Z,823.00
2023-04-11T11:05:26.396Z,830.00
2023-04-11T11:06:26.354Z,878.00
2023-04-11T11:07:26.726Z,895.00
2023-04-11T11:08:26.355Z,908.00
2023-04-11T11:09:26.347Z,923.00
2023-04-11T11:10:26.333Z,936.00
2023-04-11T11:11:26.315Z,940.00
2023-04-11T11:12:26.339Z,950.00
2023-04-11T11:13:26.356Z,958.00
2023-04-11T11:14:26.449Z,951.00
2023-04-11T11:15:26.461Z,943.00
2023-04-11T11:16:26.583Z,872.00
2023-04-11T11:17:26.783Z,914.00
2023-04-11T11:18:26.603Z,958.00
2023-04-11T11:19:26.655Z,946.00
2023-04-11T11:20:26.743Z,846.00
2023-04-11T11:21:28.119Z,791.00
2023-04-11T11:22:26.829Z,825.00
2023-04-11T11:23:26.858Z,821.00
2023-04-11T11:24:26.880Z,806.00
2023-04-11T11:25:26.927Z,800.00
2023-04-11T11:26:26.916Z,782.00
2023-04-11T11:27:26.920Z,773.00
2023-04-11T11:28:29.790Z,716.00
2023-04-11T11:29:26.981Z,703.00
2023-04-11T11:30:26.932Z,695.00
2023-04-11T11:31:26.963Z,685.00
2023-04-11T11:32:27.007Z,681.00
2023-04-11T11:33:26.913Z,686.00
2023-04-11T11:34:26.906Z,698.00
2023-04-11T11:35:26.899Z,710.00
2023-04-11T11:36:26.929Z,716.00
2023-04-11T11:37:26.901Z,721.00
2023-04-11T11:38:26.890Z,725.00
2023-04-11T11:39:26.870Z,723.00
2023-04-11T11:40:26.872Z,722.00
2023-04-11T11:41:26.898Z,716.00
2023-04-11T11:42:26.859Z,707.00
2023-04-11T11:43:26.843Z,694.00
2023-04-11T11:44:26.855Z,682.00
2023-04-11T11:45:26.956Z,670.00
2023-04-11T11:46:26.889Z,663.00
2023-04-11T11:47:26.857Z,655.00
2023-04-11T11:48:26.808Z,649.00
2023-04-11T11:49:26.814Z,646.00
2023-04-11T11:50:26.830Z,646.00
2023-04-11T11:51:26.793Z,646.00
2023-04-11T11:52:26.790Z,643.00
2023-04-11T11:53:26.808Z,640.00
2023-04-11T11:54:26.806Z,640.00
2023-04-11T11:55:26.796Z,635.00
2023-04-11T11:56:26.760Z,633.00
2023-04-11T11:57:26.753Z,627.00
2023-04-11T11:58:26.759Z,622.00
2023-04-11T11:59:26.768Z,620.00
2023-04-11T12:00:26.739Z,615.00
2023-04-11T12:01:26.738Z,610.00
2023-04-11T12:02:26.961Z,607.00
2023-04-11T12:03:26.911Z,601.00
2023-04-11T12:04:26.862Z,594.00
2023-04-11T12:05:26.778Z,590.00
2023-04-11T12:06:26.699Z,589.00
2023-04-11T12:07:26.701Z,582.00
2023-04-11T12:08:26.694Z,587.00
2023-04-11T12:09:26.721Z,593.00
2023-04-11T12:10:26.688Z,595.00
2023-04-11T12:11:26.683Z,625.00
2023-04-11T12:12:26.673Z,675.00
2023-04-11T12:13:26.678Z,694.00
2023-04-11T12:14:26.692Z,710.00
2023-04-11T12:15:26.651Z,715.00
2023-04-11T12:16:26.740Z,722.00
2023-04-11T12:17:26.756Z,727.00
2023-04-11T12:18:26.734Z,727.00
2023-04-11T12:19:26.662Z,735.00
2023-04-11T12:20:26.745Z,751.00
2023-04-11T12:21:26.593Z,767.00
2023-04-11T12:22:26.599Z,776.00
2023-04-11T12:23:26.602Z,788.00
2023-04-11T12:24:26.605Z,807.00
2023-04-11T12:25:26.569Z,820.00
2023-04-11T12:26:26.569Z,829.00
2023-04-11T12:27:26.586Z,839.00
2023-04-11T12:28:26.584Z,846.00